createdAt,value
2022-09-21T00:00:13.303Z,7.20
2022-09-21T00:02:41.652Z,7.10
2022-09-21T00:05:11.514Z,7.20
2022-09-21T00:07:39.775Z,7.00
2022-09-21T00:10:08.929Z,7.00
2022-09-21T00:12:38.705Z,7.00
2022-09-21T00:15:08.605Z,7.10
2022-09-21T00:17:37.546Z,7.00
2022-09-21T00:20:06.672Z,7.00
2022-09-21T00:22:37.364Z,7.00
2022-09-21T00:25:06.477Z,6.90
2022-09-21T00:27:34.841Z,6.90
2022-09-21T00:30:04.471Z,6.80
2022-09-21T00:32:33.882Z,6.70
2022-09-21T00:35:02.849Z,6.80
2022-09-21T00:37:31.972Z,6.80
2022-09-21T00:40:01.941Z,6.90
2022-09-21T00:42:32.087Z,6.80
2022-09-21T00:45:00.670Z,6.90
2022-09-21T00:47:33.671Z,6.80
2022-09-21T00:50:05.069Z,6.70
2022-09-21T00:52:38.762Z,6.90
2022-09-21T00:55:12.767Z,6.80
2022-09-21T00:57:41.378Z,6.70
2022-09-21T01:00:12.011Z,6.80
2022-09-21T01:02:40.561Z,6.90
2022-09-21T01:05:10.425Z,6.70
2022-09-21T01:07:43.733Z,6.70
2022-09-21T01:10:15.476Z,6.60
2022-09-21T01:12:54.671Z,6.70
2022-09-21T01:15:35.243Z,6.70
2022-09-21T01:18:12.326Z,6.80
2022-09-21T01:21:21.118Z,6.80
2022-09-21T01:24:17.732Z,6.70
2022-09-21T01:27:08.563Z,6.80
2022-09-21T01:29:44.978Z,6.40
2022-09-21T01:32:18.209Z,6.40
2022-09-21T01:34:51.142Z,6.30
2022-09-21T01:37:22.594Z,6.10
2022-09-21T01:39:55.366Z,6.10
2022-09-21T01:42:26.728Z,6.30
2022-09-21T01:44:59.571Z,6.20
2022-09-21T01:47:31.661Z,6.30
2022-09-21T01:50:02.309Z,6.20
2022-09-21T01:52:35.726Z,6.10
2022-09-21T01:55:10.430Z,5.90
2022-09-21T01:57:44.620Z,6.10
2022-09-21T02:00:17.178Z,6.20
2022-09-21T02:02:50.992Z,6.10
2022-09-21T02:05:21.654Z,6.00
2022-09-21T02:07:51.561Z,6.00
2022-09-21T02:10:24.023Z,6.00
2022-09-21T02:12:57.072Z,5.80
2022-09-21T02:15:32.202Z,5.80
2022-09-21T02:18:07.663Z,6.10
2022-09-21T02:20:41.064Z,6.10
2022-09-21T02:23:16.359Z,6.10
2022-09-21T02:25:53.415Z,6.10
2022-09-21T02:28:32.668Z,6.10
2022-09-21T02:31:09.495Z,6.10
2022-09-21T02:33:48.022Z,6.10
2022-09-21T02:36:23.081Z,6.00
2022-09-21T02:38:55.295Z,6.10
2022-09-21T02:41:30.224Z,6.10
2022-09-21T02:44:05.007Z,6.20
2022-09-21T02:46:38.726Z,6.20
2022-09-21T02:49:10.112Z,6.00
2022-09-21T02:51:42.245Z,6.20
2022-09-21T02:54:14.367Z,6.20
2022-09-21T02:56:43.893Z,6.20
2022-09-21T02:59:12.488Z,6.30
2022-09-21T03:01:43.336Z,6.30
2022-09-21T03:04:11.844Z,6.10
2022-09-21T03:06:41.522Z,6.00
2022-09-21T03:09:10.292Z,6.00
2022-09-21T03:11:39.141Z,6.00
2022-09-21T03:14:08.664Z,6.00
2022-09-21T03:16:37.608Z,6.10
2022-09-21T03:19:07.648Z,6.30
2022-09-21T03:21:36.134Z,5.90
2022-09-21T03:24:05.264Z,5.80
2022-09-21T03:26:33.604Z,5.80
2022-09-21T03:29:01.854Z,5.80
2022-09-21T03:31:35.448Z,6.00
2022-09-21T03:34:06.055Z,5.90
2022-09-21T03:36:36.450Z,5.90
2022-09-21T03:39:05.165Z,5.80
2022-09-21T03:41:33.722Z,6.00
2022-09-21T03:44:02.531Z,6.00
2022-09-21T03:46:40.119Z,6.10
2022-09-21T03:49:08.927Z,6.00
2022-09-21T03:51:39.518Z,6.00
2022-09-21T03:54:07.855Z,6.00
2022-09-21T03:56:36.642Z,5.90
2022-09-21T03:59:05.580Z,5.70
2022-09-21T04:01:33.897Z,5.70
2022-09-21T04:04:02.679Z,5.70
2022-09-21T04:06:34.643Z,5.70
2022-09-21T04:09:04.875Z,5.70
2022-09-21T04:11:33.373Z,5.70
2022-09-21T04:14:01.932Z,5.60
2022-09-21T04:16:30.935Z,5.60
2022-09-21T04:18:59.235Z,5.40
2022-09-21T04:21:29.076Z,5.50
2022-09-21T04:23:59.474Z,5.50
2022-09-21T04:26:32.017Z,5.70
2022-09-21T04:29:05.361Z,5.60
2022-09-21T04:31:37.438Z,5.60
2022-09-21T04:37:46.835Z,5.80
2022-09-21T04:40:22.187Z,5.70
2022-09-21T04:43:32.406Z,5.60
2022-09-21T04:46:10.501Z,5.60
2022-09-21T04:49:26.074Z,5.60
2022-09-21T04:55:20.837Z,5.50
2022-09-21T04:57:51.312Z,5.40
2022-09-21T05:00:22.469Z,5.40
2022-09-21T05:02:52.488Z,5.50
2022-09-21T05:05:22.032Z,5.50
2022-09-21T05:07:57.808Z,5.60
2022-09-21T05:10:26.802Z,5.60
2022-09-21T05:12:55.097Z,5.50
2022-09-21T05:15:24.855Z,5.60
2022-09-21T05:17:53.167Z,5.70
2022-09-21T05:20:21.437Z,5.70
2022-09-21T05:22:49.929Z,5.70
2022-09-21T05:28:47.130Z,5.40
2022-09-21T05:32:23.643Z,5.50
2022-09-21T05:35:02.016Z,5.50
2022-09-21T05:47:28.099Z,5.60
2022-09-21T05:51:09.551Z,5.60
2022-09-21T05:54:29.982Z,5.60
2022-09-21T05:57:11.743Z,5.70
2022-09-21T05:59:56.865Z,5.70
2022-09-21T06:02:46.569Z,5.70
2022-09-21T06:05:23.857Z,5.80
2022-09-21T06:07:53.593Z,5.90
2022-09-21T06:10:32.276Z,5.80
2022-09-21T06:13:32.834Z,5.90
2022-09-21T06:16:44.313Z,5.90
2022-09-21T06:19:30.516Z,6.00
2022-09-21T06:22:00.380Z,5.70
2022-09-21T06:24:28.871Z,5.80
2022-09-21T06:26:57.816Z,5.70
2022-09-21T06:29:26.735Z,5.80
2022-09-21T06:38:33.985Z,5.80
2022-09-21T06:41:05.585Z,5.90
2022-09-21T06:44:05.903Z,5.90
2022-09-21T06:49:42.509Z,6.00
2022-09-21T06:52:14.683Z,6.00
2022-09-21T06:57:49.734Z,5.90
2022-09-21T07:00:23.975Z,5.90
2022-09-21T07:02:56.966Z,5.70
2022-09-21T07:05:26.144Z,5.70
2022-09-21T07:08:02.229Z,5.80
2022-09-21T07:10:31.982Z,5.80
2022-09-21T07:13:05.900Z,5.80
2022-09-21T07:15:34.596Z,5.80
2022-09-21T07:18:11.285Z,5.90
2022-09-21T07:20:40.106Z,5.90
2022-09-21T07:23:17.423Z,6.00
2022-09-21T07:25:52.904Z,6.10
2022-09-21T07:28:21.757Z,6.10
2022-09-21T07:30:51.042Z,6.10
2022-09-21T07:36:19.020Z,6.20
2022-09-21T07:38:58.012Z,6.50
2022-09-21T07:41:29.420Z,6.80
2022-09-21T07:43:58.018Z,6.80
2022-09-21T07:46:26.329Z,6.90
2022-09-21T07:48:58.372Z,6.70
2022-09-21T07:51:28.042Z,6.80
2022-09-21T07:53:59.442Z,6.60
2022-09-21T07:56:29.601Z,6.60
2022-09-21T08:05:28.990Z,6.80
2022-09-21T08:07:58.823Z,7.00
2022-09-21T08:10:30.073Z,7.20
2022-09-21T08:12:58.390Z,7.40
2022-09-21T08:15:48.907Z,7.20
2022-09-21T08:18:17.896Z,7.30
2022-09-21T08:20:54.366Z,7.60
2022-09-21T08:23:32.410Z,7.60
2022-09-21T08:26:09.465Z,7.70
2022-09-21T08:28:40.365Z,7.70
2022-09-21T08:31:15.471Z,7.40
2022-09-21T08:34:13.338Z,7.40
2022-09-21T08:37:01.953Z,7.80
2022-09-21T08:39:45.629Z,8.00
2022-09-21T08:45:57.101Z,8.10
2022-09-21T08:48:34.389Z,8.40
2022-09-21T08:51:44.418Z,8.50
2022-09-21T08:54:32.960Z,8.40
2022-09-21T08:57:13.820Z,8.50
2022-09-21T09:00:18.692Z,8.60
2022-09-21T09:03:30.795Z,8.90
2022-09-21T09:06:16.677Z,8.90
2022-09-21T09:16:18.902Z,9.00
2022-09-21T09:18:52.514Z,9.20
2022-09-21T09:21:52.693Z,9.50
2022-09-21T09:30:46.334Z,9.30
2022-09-21T09:33:22.395Z,10.20
2022-09-21T09:35:59.083Z,10.80
2022-09-21T09:38:45.097Z,10.60
2022-09-21T09:49:41.091Z,10.60
2022-09-21T09:52:18.224Z,10.50
2022-09-21T09:54:51.418Z,10.70
2022-09-21T09:57:44.362Z,10.40
2022-09-21T10:00:16.819Z,10.60
2022-09-21T10:03:03.883Z,10.40
2022-09-21T10:05:41.328Z,10.70
2022-09-21T10:14:55.090Z,10.70
2022-09-21T10:17:26.758Z,10.70
2022-09-21T10:20:08.440Z,11.00
2022-09-21T10:22:40.052Z,11.20
2022-09-21T10:25:17.567Z,11.30
2022-09-21T10:27:52.032Z,11.00
2022-09-21T10:36:58.572Z,11.30
2022-09-21T10:39:30.290Z,11.60
2022-09-21T10:42:02.622Z,11.70
2022-09-21T10:50:53.601Z,12.00
2022-09-21T10:53:28.505Z,12.30
2022-09-21T10:56:29.081Z,12.50
2022-09-21T10:59:41.825Z,12.50
2022-09-21T11:02:44.643Z,12.60
2022-09-21T11:05:18.909Z,12.70
2022-09-21T11:08:07.473Z,12.60
2022-09-21T11:10:47.190Z,12.50
2022-09-21T11:13:31.620Z,12.60
2022-09-21T11:16:05.244Z,12.90
2022-09-21T11:18:41.266Z,13.20
2022-09-21T11:21:19.060Z,13.40
2022-09-21T11:23:58.455Z,13.30
2022-09-21T11:26:36.839Z,13.20
2022-09-21T11:29:44.850Z,13.40
2022-09-21T11:32:45.631Z,13.80
2022-09-21T11:35:44.685Z,14.40
2022-09-21T11:38:21.470Z,14.70
2022-09-21T11:45:49.695Z,14.60
2022-09-21T11:48:28.434Z,14.70
2022-09-21T11:51:08.051Z,14.50
2022-09-21T11:54:03.540Z,14.20
2022-09-21T11:56:49.214Z,14.10
2022-09-21T11:59:51.602Z,13.90
2022-09-21T12:03:16.850Z,13.80
2022-09-21T12:09:42.434Z,13.70
2022-09-21T12:16:11.627Z,13.70
2022-09-21T12:25:34.127Z,14.50
2022-09-21T12:28:12.948Z,14.60
2022-09-21T12:30:47.170Z,14.90
2022-09-21T12:33:26.191Z,14.90
2022-09-21T12:36:03.764Z,15.00
2022-09-21T12:38:39.538Z,15.50
2022-09-21T12:41:18.551Z,15.40
2022-09-21T12:51:03.656Z,15.50
2022-09-21T12:54:09.458Z,15.50
2022-09-21T12:56:57.660Z,15.30
2022-09-21T12:59:38.326Z,15.20
2022-09-21T13:02:23.129Z,15.30
2022-09-21T13:05:02.519Z,15.10
2022-09-21T13:11:56.325Z,15.60
2022-09-21T13:14:28.904Z,15.60
2022-09-21T13:17:01.138Z,15.20
2022-09-21T13:19:36.675Z,15.10
2022-09-21T13:22:22.766Z,14.90
2022-09-21T13:25:03.707Z,14.80
2022-09-21T13:28:12.882Z,14.70
2022-09-21T13:34:26.450Z,14.80
2022-09-21T13:37:28.706Z,14.60
2022-09-21T13:47:02.299Z,14.60
2022-09-21T13:49:35.336Z,15.00
2022-09-21T13:52:11.192Z,15.10
2022-09-21T13:55:02.622Z,15.60
2022-09-21T14:01:23.867Z,15.90
2022-09-21T14:04:01.873Z,15.90
2022-09-21T14:06:37.104Z,15.80
2022-09-21T14:09:50.770Z,16.00
2022-09-21T14:12:25.173Z,16.30
2022-09-21T14:15:21.748Z,16.30
2022-09-21T14:18:36.670Z,16.40
2022-09-21T14:21:21.306Z,16.60
2022-09-21T14:24:22.969Z,16.40
2022-09-21T14:27:12.137Z,16.70
2022-09-21T14:29:53.266Z,16.30
2022-09-21T14:32:25.818Z,15.80
2022-09-21T14:34:59.484Z,15.50
2022-09-21T14:37:56.349Z,15.10
2022-09-21T14:40:40.168Z,14.90
2022-09-21T14:43:28.002Z,14.60
2022-09-21T14:46:32.515Z,14.60
2022-09-21T14:49:44.322Z,14.50
2022-09-21T14:52:32.153Z,14.50
2022-09-21T14:55:15.807Z,14.40
2022-09-21T14:57:56.352Z,14.40
2022-09-21T15:00:39.378Z,14.40
2022-09-21T15:03:37.039Z,14.40
2022-09-21T15:06:30.549Z,14.40
2022-09-21T15:09:49.521Z,14.40
2022-09-21T15:21:34.696Z,14.40
2022-09-21T15:24:25.559Z,14.50
2022-09-21T15:27:03.657Z,14.60
2022-09-21T15:29:40.185Z,14.70
2022-09-21T15:32:12.086Z,14.80
2022-09-21T15:34:42.376Z,14.80
2022-09-21T15:37:18.259Z,14.80
2022-09-21T15:39:48.834Z,14.80
2022-09-21T15:42:30.207Z,14.80
2022-09-21T15:45:21.133Z,14.90
2022-09-21T15:48:04.626Z,15.00
2022-09-21T15:50:52.762Z,15.10
2022-09-21T15:55:50.817Z,15.20
2022-09-21T15:58:39.002Z,15.10
2022-09-21T16:01:12.583Z,15.20
2022-09-21T16:03:42.610Z,15.10
2022-09-21T16:06:29.097Z,15.20
2022-09-21T16:08:58.437Z,15.30
2022-09-21T16:11:38.259Z,15.20
2022-09-21T16:14:34.118Z,15.10
2022-09-21T16:17:29.302Z,15.30
2022-09-21T16:20:40.166Z,15.30
2022-09-21T16:29:38.797Z,15.20
2022-09-21T16:32:33.680Z,15.20
2022-09-21T16:35:32.843Z,15.20
2022-09-21T16:40:55.057Z,14.90
2022-09-21T16:43:25.091Z,14.80
2022-09-21T16:45:53.914Z,14.70
2022-09-21T16:48:44.190Z,14.60
2022-09-21T16:51:28.808Z,14.40
2022-09-21T17:06:52.639Z,14.00
2022-09-21T17:15:49.738Z,13.80
2022-09-21T17:18:20.475Z,13.70
2022-09-21T17:20:55.256Z,13.60
2022-09-21T17:23:30.487Z,13.60
2022-09-21T17:26:04.032Z,13.50
2022-09-21T17:32:22.697Z,13.30
2022-09-21T17:34:58.932Z,13.20
2022-09-21T17:37:30.958Z,13.20
2022-09-21T17:40:00.691Z,13.10
2022-09-21T17:42:29.730Z,13.10
2022-09-21T17:45:17.375Z,13.00
2022-09-21T17:47:51.064Z,12.90
2022-09-21T17:50:27.248Z,12.90
2022-09-21T17:53:13.990Z,12.70
2022-09-21T17:55:50.730Z,12.50
2022-09-21T17:58:41.930Z,12.50
2022-09-21T18:08:08.459Z,12.30
2022-09-21T18:10:43.159Z,12.20
2022-09-21T18:13:27.495Z,12.20
2022-09-21T18:16:10.389Z,12.20
2022-09-21T18:18:45.629Z,12.10
2022-09-21T18:21:22.407Z,12.10
2022-09-21T18:24:17.027Z,12.00
2022-09-21T18:33:05.632Z,11.90
2022-09-21T18:35:51.132Z,11.90
2022-09-21T18:38:31.491Z,11.80
2022-09-21T18:41:25.900Z,11.80
2022-09-21T18:44:04.914Z,11.90
2022-09-21T18:53:20.217Z,11.60
2022-09-21T18:55:49.373Z,11.60
2022-09-21T18:58:20.151Z,11.50
2022-09-21T19:00:49.342Z,11.50
2022-09-21T19:10:22.328Z,11.10
2022-09-21T19:13:24.194Z,11.10
2022-09-21T19:19:49.108Z,11.00
2022-09-21T19:22:35.495Z,10.90
2022-09-21T19:29:06.053Z,10.60
2022-09-21T19:31:36.231Z,10.60
2022-09-21T19:34:20.019Z,10.60
2022-09-21T19:36:50.424Z,10.50
2022-09-21T19:39:20.196Z,10.50
2022-09-21T19:42:01.016Z,10.40
2022-09-21T19:44:50.491Z,10.30
2022-09-21T19:47:29.389Z,10.20
2022-09-21T19:50:12.228Z,10.10
2022-09-21T19:52:42.736Z,10.10
2022-09-21T19:55:35.308Z,10.00
2022-09-21T19:58:22.167Z,10.00
2022-09-21T20:00:54.498Z,9.90
2022-09-21T20:03:31.489Z,9.90
2022-09-21T20:06:09.296Z,9.80
2022-09-21T20:08:46.952Z,9.80
2022-09-21T20:11:19.118Z,9.80
2022-09-21T20:13:57.792Z,9.80
2022-09-21T20:16:33.989Z,9.70
2022-09-21T20:19:14.117Z,9.70
2022-09-21T20:21:45.618Z,9.60
2022-09-21T20:24:22.319Z,9.60
2022-09-21T20:26:56.133Z,9.50
2022-09-21T20:29:25.277Z,9.60
2022-09-21T20:31:55.085Z,9.50
2022-09-21T20:34:23.720Z,9.50
2022-09-21T20:36:52.684Z,9.50
2022-09-21T20:39:22.946Z,9.40
2022-09-21T20:41:59.597Z,9.30
2022-09-21T20:44:45.325Z,9.30
2022-09-21T20:47:14.162Z,9.30
2022-09-21T20:49:42.617Z,9.20
2022-09-21T20:52:11.402Z,9.20
2022-09-21T20:54:45.468Z,9.10
2022-09-21T20:57:20.834Z,9.10
2022-09-21T20:59:49.309Z,9.00
2022-09-21T21:05:30.538Z,9.00
2022-09-21T21:08:04.363Z,9.00
2022-09-21T21:17:14.514Z,9.00
2022-09-21T21:19:43.543Z,8.90
2022-09-21T21:22:13.222Z,8.90
2022-09-21T21:24:42.448Z,8.90
2022-09-21T21:27:17.037Z,8.80
2022-09-21T21:29:46.989Z,8.80
2022-09-21T21:32:17.464Z,8.80
2022-09-21T21:34:50.501Z,8.70
2022-09-21T21:37:20.776Z,8.60
2022-09-21T21:39:49.511Z,8.60
2022-09-21T21:42:18.583Z,8.60
2022-09-21T21:44:47.769Z,8.50
2022-09-21T21:50:07.540Z,8.40
2022-09-21T21:52:36.050Z,8.50
2022-09-21T21:55:05.321Z,8.40
2022-09-21T21:57:33.957Z,8.40
2022-09-21T22:00:12.188Z,8.40
2022-09-21T22:02:52.709Z,8.30
2022-09-21T22:05:28.680Z,8.30
2022-09-21T22:07:58.627Z,8.20
2022-09-21T22:10:28.267Z,8.20
2022-09-21T22:12:57.751Z,8.20
2022-09-21T22:15:26.631Z,8.10
2022-09-21T22:17:56.305Z,8.10
2022-09-21T22:20:24.642Z,8.10
2022-09-21T22:22:53.056Z,8.10
2022-09-21T22:25:21.312Z,8.10
2022-09-21T22:27:54.586Z,8.00
2022-09-21T22:30:23.522Z,8.00
2022-09-21T22:32:51.849Z,7.90
2022-09-21T22:35:23.147Z,7.90
2022-09-21T22:37:54.541Z,7.80
2022-09-21T22:40:23.316Z,7.80
2022-09-21T22:42:51.813Z,7.90
2022-09-21T22:45:20.378Z,7.80
2022-09-21T22:47:50.548Z,7.80
2022-09-21T22:50:20.309Z,7.70
2022-09-21T22:52:48.738Z,7.70
2022-09-21T22:55:22.134Z,7.70
2022-09-21T22:57:50.651Z,7.80
2022-09-21T23:00:19.197Z,7.80
2022-09-21T23:02:47.635Z,7.70
2022-09-21T23:05:17.480Z,7.70
2022-09-21T23:07:54.062Z,7.70
2022-09-21T23:10:37.811Z,7.60
2022-09-21T23:13:06.154Z,7.60
2022-09-21T23:15:34.598Z,7.50
2022-09-21T23:18:04.750Z,7.50
2022-09-21T23:20:33.517Z,7.40
2022-09-21T23:23:03.637Z,7.30
2022-09-21T23:25:32.589Z,7.30
2022-09-21T23:28:01.810Z,7.30
2022-09-21T23:30:32.633Z,7.20
2022-09-21T23:39:14.801Z,7.20
2022-09-21T23:41:43.665Z,7.20
2022-09-21T23:44:12.549Z,7.20
2022-09-21T23:46:45.298Z,7.20
2022-09-21T23:49:14.099Z,7.10
2022-09-21T23:51:43.146Z,7.10
2022-09-21T23:54:15.422Z,7.10
2022-09-21T23:56:45.362Z,7.00
2022-09-21T23:59:13.961Z,7.00
